sensor_id;sensor_type;location;lat;lon;timestamp;temperature;humidity
14771;DHT22;7477;45.222;5.688;2024-01-27T00:00:02;9.10;99.90
14771;DHT22;7477;45.222;5.688;2024-01-27T00:03:22;9.10;99.90
14771;DHT22;7477;45.222;5.688;2024-01-27T00:06:41;9.10;99.90
14771;DHT22;7477;45.222;5.688;2024-01-27T00:10:01;9.10;99.90
14771;DHT22;7477;45.222;5.688;2024-01-27T00:13:22;9.10;99.90
14771;DHT22;7477;45.222;5.688;2024-01-27T00:16:42;9.00;99.90
14771;DHT22;7477;45.222;5.688;2024-01-27T00:20:01;9.00;99.90
14771;DHT22;7477;45.222;5.688;2024-01-27T00:23:20;9.00;99.90
14771;DHT22;7477;45.222;5.688;2024-01-27T00:26:39;8.90;99.90
14771;DHT22;7477;45.222;5.688;2024-01-27T00:29:58;8.90;99.90
14771;DHT22;7477;45.222;5.688;2024-01-27T00:33:17;8.70;99.90
14771;DHT22;7477;45.222;5.688;2024-01-27T00:36:37;8.60;99.90
14771;DHT22;7477;45.222;5.688;2024-01-27T00:39:56;8.50;99.90
14771;DHT22;7477;45.222;5.688;2024-01-27T00:43:15;8.50;99.90
14771;DHT22;7477;45.222;5.688;2024-01-27T00:46:34;8.40;99.90
14771;DHT22;7477;45.222;5.688;2024-01-27T00:49:53;8.30;99.90
14771;DHT22;7477;45.222;5.688;2024-01-27T00:53:13;8.20;99.90
14771;DHT22;7477;45.222;5.688;2024-01-27T00:56:32;8.20;99.90
14771;DHT22;7477;45.222;5.688;2024-01-27T00:59:54;8.20;99.90
14771;DHT22;7477;45.222;5.688;2024-01-27T01:03:13;8.20;99.90
14771;DHT22;7477;45.222;5.688;2024-01-27T01:06:32;8.10;99.90
14771;DHT22;7477;45.222;5.688;2024-01-27T01:09:51;7.90;99.90
14771;DHT22;7477;45.222;5.688;2024-01-27T01:13:10;8.00;99.90
14771;DHT22;7477;45.222;5.688;2024-01-27T01:16:30;7.90;99.90
14771;DHT22;7477;45.222;5.688;2024-01-27T01:19:49;7.70;99.90
14771;DHT22;7477;45.222;5.688;2024-01-27T01:23:08;7.80;99.90
14771;DHT22;7477;45.222;5.688;2024-01-27T01:26:28;7.70;99.90
14771;DHT22;7477;45.222;5.688;2024-01-27T01:29:47;7.60;99.90
14771;DHT22;7477;45.222;5.688;2024-01-27T01:33:06;7.60;99.90
14771;DHT22;7477;45.222;5.688;2024-01-27T01:36:25;7.50;99.90
14771;DHT22;7477;45.222;5.688;2024-01-27T01:39:44;7.50;99.90
14771;DHT22;7477;45.222;5.688;2024-01-27T01:43:09;7.40;99.90
14771;DHT22;7477;45.222;5.688;2024-01-27T01:46:29;7.40;99.90
14771;DHT22;7477;45.222;5.688;2024-01-27T01:49:49;7.40;99.90
14771;DHT22;7477;45.222;5.688;2024-01-27T01:53:08;7.30;99.90
14771;DHT22;7477;45.222;5.688;2024-01-27T01:56:28;7.50;99.90
14771;DHT22;7477;45.222;5.688;2024-01-27T01:59:47;7.40;99.90
14771;DHT22;7477;45.222;5.688;2024-01-27T02:03:13;7.30;99.90
14771;DHT22;7477;45.222;5.688;2024-01-27T02:06:32;7.20;99.90
14771;DHT22;7477;45.222;5.688;2024-01-27T02:09:51;7.20;99.90
14771;DHT22;7477;45.222;5.688;2024-01-27T02:13:21;7.30;99.90
14771;DHT22;7477;45.222;5.688;2024-01-27T02:16:41;7.40;99.90
14771;DHT22;7477;45.222;5.688;2024-01-27T02:20:00;7.50;99.90
14771;DHT22;7477;45.222;5.688;2024-01-27T02:23:19;7.50;99.90
14771;DHT22;7477;45.222;5.688;2024-01-27T02:26:38;7.50;99.90
14771;DHT22;7477;45.222;5.688;2024-01-27T02:29:57;7.50;99.90
14771;DHT22;7477;45.222;5.688;2024-01-27T02:33:16;7.50;99.90
14771;DHT22;7477;45.222;5.688;2024-01-27T02:36:35;7.60;99.90
14771;DHT22;7477;45.222;5.688;2024-01-27T02:39:54;7.70;99.90
14771;DHT22;7477;45.222;5.688;2024-01-27T02:43:13;7.80;99.90
14771;DHT22;7477;45.222;5.688;2024-01-27T02:46:33;7.80;99.90
14771;DHT22;7477;45.222;5.688;2024-01-27T02:49:52;7.70;99.90
14771;DHT22;7477;45.222;5.688;2024-01-27T02:53:11;7.70;99.90
14771;DHT22;7477;45.222;5.688;2024-01-27T02:56:30;7.80;99.90
14771;DHT22;7477;45.222;5.688;2024-01-27T02:59:49;7.70;99.90
14771;DHT22;7477;45.222;5.688;2024-01-27T03:03:08;7.60;99.90
14771;DHT22;7477;45.222;5.688;2024-01-27T03:06:28;7.60;99.90
14771;DHT22;7477;45.222;5.688;2024-01-27T03:09:47;7.60;99.90
14771;DHT22;7477;45.222;5.688;2024-01-27T03:13:06;7.70;99.90
14771;DHT22;7477;45.222;5.688;2024-01-27T03:16:25;7.70;99.90
14771;DHT22;7477;45.222;5.688;2024-01-27T03:19:45;7.70;99.90
14771;DHT22;7477;45.222;5.688;2024-01-27T03:23:04;7.80;99.90
14771;DHT22;7477;45.222;5.688;2024-01-27T03:26:23;7.90;99.90
14771;DHT22;7477;45.222;5.688;2024-01-27T03:29:42;8.00;99.90
14771;DHT22;7477;45.222;5.688;2024-01-27T03:33:01;8.00;99.90
14771;DHT22;7477;45.222;5.688;2024-01-27T03:36:21;8.10;99.90
14771;DHT22;7477;45.222;5.688;2024-01-27T03:39:43;8.20;99.90
14771;DHT22;7477;45.222;5.688;2024-01-27T03:43:02;8.30;99.90
14771;DHT22;7477;45.222;5.688;2024-01-27T03:46:21;8.40;99.90
14771;DHT22;7477;45.222;5.688;2024-01-27T03:49:40;8.40;99.90
14771;DHT22;7477;45.222;5.688;2024-01-27T03:52:59;8.30;99.90
14771;DHT22;7477;45.222;5.688;2024-01-27T03:56:18;8.30;99.90
14771;DHT22;7477;45.222;5.688;2024-01-27T03:59:40;8.40;99.90
14771;DHT22;7477;45.222;5.688;2024-01-27T04:03:00;8.60;99.90
14771;DHT22;7477;45.222;5.688;2024-01-27T04:06:19;8.60;99.90
14771;DHT22;7477;45.222;5.688;2024-01-27T04:09:38;8.60;99.90
14771;DHT22;7477;45.222;5.688;2024-01-27T04:12:57;8.50;99.90
14771;DHT22;7477;45.222;5.688;2024-01-27T04:16:17;8.50;99.90
14771;DHT22;7477;45.222;5.688;2024-01-27T04:19:36;8.50;99.90
14771;DHT22;7477;45.222;5.688;2024-01-27T04:22:55;8.50;99.90
14771;DHT22;7477;45.222;5.688;2024-01-27T04:26:14;8.40;99.90
14771;DHT22;7477;45.222;5.688;2024-01-27T04:29:36;8.40;99.90
14771;DHT22;7477;45.222;5.688;2024-01-27T04:32:55;8.40;99.90
14771;DHT22;7477;45.222;5.688;2024-01-27T04:36:14;8.40;99.90
14771;DHT22;7477;45.222;5.688;2024-01-27T04:39:33;8.30;99.90
14771;DHT22;7477;45.222;5.688;2024-01-27T04:42:52;8.30;99.90
14771;DHT22;7477;45.222;5.688;2024-01-27T04:46:12;8.20;99.90
14771;DHT22;7477;45.222;5.688;2024-01-27T04:49:31;8.20;99.90
14771;DHT22;7477;45.222;5.688;2024-01-27T04:52:50;8.20;99.90
14771;DHT22;7477;45.222;5.688;2024-01-27T04:56:09;8.10;99.90
14771;DHT22;7477;45.222;5.688;2024-01-27T04:59:28;8.00;99.90
14771;DHT22;7477;45.222;5.688;2024-01-27T05:02:48;7.90;99.90
14771;DHT22;7477;45.222;5.688;2024-01-27T05:06:08;7.80;99.90
14771;DHT22;7477;45.222;5.688;2024-01-27T05:09:28;7.80;99.90
14771;DHT22;7477;45.222;5.688;2024-01-27T05:12:47;7.60;99.90
14771;DHT22;7477;45.222;5.688;2024-01-27T05:16:07;7.50;99.90
14771;DHT22;7477;45.222;5.688;2024-01-27T05:19:26;7.50;99.90
14771;DHT22;7477;45.222;5.688;2024-01-27T05:22:46;7.40;99.90
14771;DHT22;7477;45.222;5.688;2024-01-27T05:26:06;7.30;99.90
14771;DHT22;7477;45.222;5.688;2024-01-27T05:29:28;7.20;99.90
14771;DHT22;7477;45.222;5.688;2024-01-27T05:32:48;7.30;99.90
14771;DHT22;7477;45.222;5.688;2024-01-27T05:36:07;7.20;99.90
14771;DHT22;7477;45.222;5.688;2024-01-27T05:39:26;7.10;99.90
14771;DHT22;7477;45.222;5.688;2024-01-27T05:42:46;7.00;99.90
14771;DHT22;7477;45.222;5.688;2024-01-27T05:46:09;7.00;99.90
14771;DHT22;7477;45.222;5.688;2024-01-27T05:49:28;7.00;99.90
14771;DHT22;7477;45.222;5.688;2024-01-27T05:52:48;6.90;99.90
14771;DHT22;7477;45.222;5.688;2024-01-27T05:56:07;7.00;99.90
14771;DHT22;7477;45.222;5.688;2024-01-27T05:59:26;6.90;99.90
14771;DHT22;7477;45.222;5.688;2024-01-27T06:02:46;6.80;99.90
14771;DHT22;7477;45.222;5.688;2024-01-27T06:06:05;6.80;99.90
14771;DHT22;7477;45.222;5.688;2024-01-27T06:09:24;6.80;99.90
14771;DHT22;7477;45.222;5.688;2024-01-27T06:12:43;6.70;99.90
14771;DHT22;7477;45.222;5.688;2024-01-27T06:16:06;6.60;99.90
14771;DHT22;7477;45.222;5.688;2024-01-27T06:19:26;6.60;99.90
14771;DHT22;7477;45.222;5.688;2024-01-27T06:22:45;6.60;99.90
14771;DHT22;7477;45.222;5.688;2024-01-27T06:26:08;6.60;99.90
14771;DHT22;7477;45.222;5.688;2024-01-27T06:29:28;6.60;99.90
14771;DHT22;7477;45.222;5.688;2024-01-27T06:32:48;6.70;99.90
14771;DHT22;7477;45.222;5.688;2024-01-27T06:36:07;6.60;99.90
14771;DHT22;7477;45.222;5.688;2024-01-27T06:39:28;6.70;99.90
14771;DHT22;7477;45.222;5.688;2024-01-27T06:42:48;6.60;99.90
14771;DHT22;7477;45.222;5.688;2024-01-27T06:46:08;6.60;99.90
14771;DHT22;7477;45.222;5.688;2024-01-27T06:49:27;6.60;99.90
14771;DHT22;7477;45.222;5.688;2024-01-27T06:52:49;6.70;99.90
14771;DHT22;7477;45.222;5.688;2024-01-27T06:56:09;6.70;99.90
14771;DHT22;7477;45.222;5.688;2024-01-27T06:59:28;6.70;99.90
14771;DHT22;7477;45.222;5.688;2024-01-27T07:02:47;6.80;99.90
14771;DHT22;7477;45.222;5.688;2024-01-27T07:06:07;6.90;99.90
14771;DHT22;7477;45.222;5.688;2024-01-27T07:09:26;7.00;99.90
14771;DHT22;7477;45.222;5.688;2024-01-27T07:12:45;7.00;99.90
14771;DHT22;7477;45.222;5.688;2024-01-27T07:16:05;7.00;99.90
14771;DHT22;7477;45.222;5.688;2024-01-27T07:19:24;7.00;99.90
14771;DHT22;7477;45.222;5.688;2024-01-27T07:22:43;7.00;99.90
14771;DHT22;7477;45.222;5.688;2024-01-27T07:26:02;7.00;99.90
14771;DHT22;7477;45.222;5.688;2024-01-27T07:29:22;7.10;99.90
14771;DHT22;7477;45.222;5.688;2024-01-27T07:32:41;7.10;99.90
14771;DHT22;7477;45.222;5.688;2024-01-27T07:36:01;7.20;99.90
14771;DHT22;7477;45.222;5.688;2024-01-27T07:39:20;7.20;99.90
14771;DHT22;7477;45.222;5.688;2024-01-27T07:42:40;7.20;99.90
14771;DHT22;7477;45.222;5.688;2024-01-27T07:46:00;7.30;99.90
14771;DHT22;7477;45.222;5.688;2024-01-27T07:49:19;7.30;99.90
14771;DHT22;7477;45.222;5.688;2024-01-27T07:52:38;7.30;99.90
14771;DHT22;7477;45.222;5.688;2024-01-27T07:55:58;7.40;99.90
14771;DHT22;7477;45.222;5.688;2024-01-27T07:59:18;7.40;99.90
14771;DHT22;7477;45.222;5.688;2024-01-27T08:02:37;7.50;99.90
14771;DHT22;7477;45.222;5.688;2024-01-27T08:05:56;7.50;99.90
14771;DHT22;7477;45.222;5.688;2024-01-27T08:09:17;7.60;99.90
14771;DHT22;7477;45.222;5.688;2024-01-27T08:12:37;7.60;99.90
14771;DHT22;7477;45.222;5.688;2024-01-27T08:15:56;7.70;99.90
14771;DHT22;7477;45.222;5.688;2024-01-27T08:19:15;7.70;99.90
14771;DHT22;7477;45.222;5.688;2024-01-27T08:22:39;7.80;99.90
14771;DHT22;7477;45.222;5.688;2024-01-27T08:25:58;7.80;99.90
14771;DHT22;7477;45.222;5.688;2024-01-27T08:29:17;7.80;99.90
14771;DHT22;7477;45.222;5.688;2024-01-27T08:32:37;7.90;99.90
14771;DHT22;7477;45.222;5.688;2024-01-27T08:35:56;7.90;99.90
14771;DHT22;7477;45.222;5.688;2024-01-27T08:39:15;7.90;99.90
14771;DHT22;7477;45.222;5.688;2024-01-27T08:42:34;8.00;99.90
14771;DHT22;7477;45.222;5.688;2024-01-27T08:45:53;8.00;99.90
14771;DHT22;7477;45.222;5.688;2024-01-27T08:49:14;8.00;99.90
14771;DHT22;7477;45.222;5.688;2024-01-27T08:52:36;8.10;99.90
14771;DHT22;7477;45.222;5.688;2024-01-27T08:55:55;8.10;99.90
14771;DHT22;7477;45.222;5.688;2024-01-27T08:59:14;8.20;99.90
14771;DHT22;7477;45.222;5.688;2024-01-27T09:02:33;8.20;99.90
14771;DHT22;7477;45.222;5.688;2024-01-27T09:05:52;8.20;99.90
14771;DHT22;7477;45.222;5.688;2024-01-27T09:09:12;8.30;99.90
14771;DHT22;7477;45.222;5.688;2024-01-27T09:12:31;8.30;99.90
14771;DHT22;7477;45.222;5.688;2024-01-27T09:15:50;8.40;99.90
14771;DHT22;7477;45.222;5.688;2024-01-27T09:19:09;8.40;99.90
14771;DHT22;7477;45.222;5.688;2024-01-27T09:22:29;8.50;99.90
14771;DHT22;7477;45.222;5.688;2024-01-27T09:25:48;8.50;99.90
14771;DHT22;7477;45.222;5.688;2024-01-27T09:29:07;8.50;99.90
14771;DHT22;7477;45.222;5.688;2024-01-27T09:32:28;8.50;99.90
14771;DHT22;7477;45.222;5.688;2024-01-27T09:35:47;8.60;99.90
14771;DHT22;7477;45.222;5.688;2024-01-27T09:39:06;8.60;99.90
14771;DHT22;7477;45.222;5.688;2024-01-27T09:42:26;8.60;99.90
14771;DHT22;7477;45.222;5.688;2024-01-27T09:45:45;8.60;99.90
14771;DHT22;7477;45.222;5.688;2024-01-27T09:49:05;8.60;99.90
14771;DHT22;7477;45.222;5.688;2024-01-27T09:52:25;8.60;99.90
14771;DHT22;7477;45.222;5.688;2024-01-27T09:55:44;8.70;99.90
14771;DHT22;7477;45.222;5.688;2024-01-27T09:59:05;8.70;99.90
14771;DHT22;7477;45.222;5.688;2024-01-27T10:02:25;8.60;99.90
14771;DHT22;7477;45.222;5.688;2024-01-27T10:05:46;8.70;99.90
14771;DHT22;7477;45.222;5.688;2024-01-27T10:09:06;8.70;99.90
14771;DHT22;7477;45.222;5.688;2024-01-27T10:12:26;8.70;99.90
14771;DHT22;7477;45.222;5.688;2024-01-27T10:15:46;8.70;99.90
14771;DHT22;7477;45.222;5.688;2024-01-27T10:19:05;8.70;99.90
14771;DHT22;7477;45.222;5.688;2024-01-27T10:22:25;8.70;99.90
14771;DHT22;7477;45.222;5.688;2024-01-27T10:25:45;8.70;99.90
14771;DHT22;7477;45.222;5.688;2024-01-27T10:29:04;8.80;99.90
14771;DHT22;7477;45.222;5.688;2024-01-27T10:32:24;8.70;99.90
14771;DHT22;7477;45.222;5.688;2024-01-27T10:35:43;8.80;99.90
14771;DHT22;7477;45.222;5.688;2024-01-27T10:39:02;8.90;99.90
14771;DHT22;7477;45.222;5.688;2024-01-27T10:42:32;9.00;99.90
14771;DHT22;7477;45.222;5.688;2024-01-27T10:45:52;9.10;99.90
14771;DHT22;7477;45.222;5.688;2024-01-27T10:49:12;9.20;99.90
14771;DHT22;7477;45.222;5.688;2024-01-27T10:52:32;9.20;99.90
14771;DHT22;7477;45.222;5.688;2024-01-27T10:55:54;9.20;99.90
14771;DHT22;7477;45.222;5.688;2024-01-27T10:59:17;9.20;99.90
14771;DHT22;7477;45.222;5.688;2024-01-27T11:02:38;9.20;99.90
14771;DHT22;7477;45.222;5.688;2024-01-27T11:05:58;9.20;99.90
14771;DHT22;7477;45.222;5.688;2024-01-27T11:09:19;9.20;99.90
14771;DHT22;7477;45.222;5.688;2024-01-27T11:12:40;9.40;99.90
14771;DHT22;7477;45.222;5.688;2024-01-27T11:15:59;9.30;99.90
14771;DHT22;7477;45.222;5.688;2024-01-27T11:19:19;9.40;99.90
14771;DHT22;7477;45.222;5.688;2024-01-27T11:22:39;9.60;99.90
14771;DHT22;7477;45.222;5.688;2024-01-27T11:26:06;9.40;99.90
14771;DHT22;7477;45.222;5.688;2024-01-27T11:29:26;9.60;99.90
14771;DHT22;7477;45.222;5.688;2024-01-27T11:32:48;9.70;99.90
14771;DHT22;7477;45.222;5.688;2024-01-27T11:36:08;10.00;99.90
14771;DHT22;7477;45.222;5.688;2024-01-27T11:39:29;10.00;99.90
14771;DHT22;7477;45.222;5.688;2024-01-27T11:42:55;9.70;99.90
14771;DHT22;7477;45.222;5.688;2024-01-27T11:46:15;9.60;99.90
14771;DHT22;7477;45.222;5.688;2024-01-27T11:49:35;9.80;99.90
14771;DHT22;7477;45.222;5.688;2024-01-27T11:52:56;9.80;99.90
14771;DHT22;7477;45.222;5.688;2024-01-27T11:56:15;9.60;99.90
14771;DHT22;7477;45.222;5.688;2024-01-27T11:59:34;9.70;99.90
14771;DHT22;7477;45.222;5.688;2024-01-27T12:02:54;10.00;99.90
14771;DHT22;7477;45.222;5.688;2024-01-27T12:06:14;10.00;99.90
14771;DHT22;7477;45.222;5.688;2024-01-27T12:09:35;10.20;99.90
14771;DHT22;7477;45.222;5.688;2024-01-27T12:12:54;10.00;99.90
14771;DHT22;7477;45.222;5.688;2024-01-27T12:16:15;9.70;99.90
14771;DHT22;7477;45.222;5.688;2024-01-27T12:19:35;10.10;99.90
14771;DHT22;7477;45.222;5.688;2024-01-27T12:23:04;9.90;99.90
14771;DHT22;7477;45.222;5.688;2024-01-27T12:26:30;10.20;99.90
14771;DHT22;7477;45.222;5.688;2024-01-27T12:29:50;10.60;99.90
14771;DHT22;7477;45.222;5.688;2024-01-27T12:33:12;10.40;99.90
14771;DHT22;7477;45.222;5.688;2024-01-27T12:36:31;10.10;99.90
14771;DHT22;7477;45.222;5.688;2024-01-27T12:39:51;10.40;99.90
14771;DHT22;7477;45.222;5.688;2024-01-27T12:43:10;10.00;99.90
14771;DHT22;7477;45.222;5.688;2024-01-27T12:46:29;10.00;99.90
14771;DHT22;7477;45.222;5.688;2024-01-27T12:49:49;9.90;99.90
14771;DHT22;7477;45.222;5.688;2024-01-27T12:53:08;10.00;99.90
14771;DHT22;7477;45.222;5.688;2024-01-27T12:56:28;9.90;99.90
14771;DHT22;7477;45.222;5.688;2024-01-27T12:59:47;9.90;99.90
14771;DHT22;7477;45.222;5.688;2024-01-27T13:03:07;10.10;99.90
14771;DHT22;7477;45.222;5.688;2024-01-27T13:06:27;9.90;99.90
14771;DHT22;7477;45.222;5.688;2024-01-27T13:09:49;9.90;99.90
14771;DHT22;7477;45.222;5.688;2024-01-27T13:13:08;9.90;99.90
14771;DHT22;7477;45.222;5.688;2024-01-27T13:16:27;10.30;99.90
14771;DHT22;7477;45.222;5.688;2024-01-27T13:19:46;10.20;99.90
14771;DHT22;7477;45.222;5.688;2024-01-27T13:23:06;10.80;99.90
14771;DHT22;7477;45.222;5.688;2024-01-27T13:26:27;10.70;99.90
14771;DHT22;7477;45.222;5.688;2024-01-27T13:29:47;10.90;99.90
14771;DHT22;7477;45.222;5.688;2024-01-27T13:33:06;11.00;99.90
14771;DHT22;7477;45.222;5.688;2024-01-27T13:36:25;11.00;99.90
14771;DHT22;7477;45.222;5.688;2024-01-27T13:39:44;10.70;99.90
14771;DHT22;7477;45.222;5.688;2024-01-27T13:43:04;11.10;99.90
14771;DHT22;7477;45.222;5.688;2024-01-27T13:46:24;11.10;99.90
14771;DHT22;7477;45.222;5.688;2024-01-27T13:49:44;10.90;99.90
14771;DHT22;7477;45.222;5.688;2024-01-27T13:53:03;10.70;99.90
14771;DHT22;7477;45.222;5.688;2024-01-27T13:56:24;10.90;99.90
14771;DHT22;7477;45.222;5.688;2024-01-27T13:59:44;10.80;99.90
14771;DHT22;7477;45.222;5.688;2024-01-27T14:03:03;11.00;99.90
14771;DHT22;7477;45.222;5.688;2024-01-27T14:06:23;11.10;99.90
14771;DHT22;7477;45.222;5.688;2024-01-27T14:09:43;11.00;99.90
14771;DHT22;7477;45.222;5.688;2024-01-27T14:13:04;10.80;99.90
14771;DHT22;7477;45.222;5.688;2024-01-27T14:16:27;10.60;99.90
14771;DHT22;7477;45.222;5.688;2024-01-27T14:19:47;10.80;99.90
14771;DHT22;7477;45.222;5.688;2024-01-27T14:23:06;10.70;99.90
14771;DHT22;7477;45.222;5.688;2024-01-27T14:26:27;10.30;99.90
14771;DHT22;7477;45.222;5.688;2024-01-27T14:29:47;10.20;99.90
14771;DHT22;7477;45.222;5.688;2024-01-27T14:33:06;10.10;99.90
14771;DHT22;7477;45.222;5.688;2024-01-27T14:36:26;10.10;99.90
14771;DHT22;7477;45.222;5.688;2024-01-27T14:39:46;10.10;99.90
14771;DHT22;7477;45.222;5.688;2024-01-27T14:43:05;10.10;99.90
14771;DHT22;7477;45.222;5.688;2024-01-27T14:46:29;10.10;99.90
14771;DHT22;7477;45.222;5.688;2024-01-27T14:49:48;10.20;99.90
14771;DHT22;7477;45.222;5.688;2024-01-27T14:53:07;10.50;99.90
14771;DHT22;7477;45.222;5.688;2024-01-27T14:56:26;10.60;99.90
14771;DHT22;7477;45.222;5.688;2024-01-27T14:59:46;10.40;99.90
14771;DHT22;7477;45.222;5.688;2024-01-27T15:03:06;10.20;99.90
14771;DHT22;7477;45.222;5.688;2024-01-27T15:06:25;10.30;99.90
14771;DHT22;7477;45.222;5.688;2024-01-27T15:09:44;10.10;99.90
14771;DHT22;7477;45.222;5.688;2024-01-27T15:13:03;10.20;99.90
14771;DHT22;7477;45.222;5.688;2024-01-27T15:16:23;10.20;99.90
14771;DHT22;7477;45.222;5.688;2024-01-27T15:19:42;10.10;99.90
14771;DHT22;7477;45.222;5.688;2024-01-27T15:23:02;10.10;99.90
14771;DHT22;7477;45.222;5.688;2024-01-27T15:26:21;10.10;99.90
14771;DHT22;7477;45.222;5.688;2024-01-27T15:29:41;10.10;99.90
14771;DHT22;7477;45.222;5.688;2024-01-27T15:33:02;10.10;99.90
14771;DHT22;7477;45.222;5.688;2024-01-27T15:36:21;10.10;99.90
14771;DHT22;7477;45.222;5.688;2024-01-27T15:39:40;10.10;99.90
14771;DHT22;7477;45.222;5.688;2024-01-27T15:43:02;10.10;99.90
14771;DHT22;7477;45.222;5.688;2024-01-27T15:46:21;10.10;99.90
14771;DHT22;7477;45.222;5.688;2024-01-27T15:49:40;10.10;99.90
14771;DHT22;7477;45.222;5.688;2024-01-27T15:53:00;10.10;99.90
14771;DHT22;7477;45.222;5.688;2024-01-27T15:56:19;10.10;99.90
14771;DHT22;7477;45.222;5.688;2024-01-27T15:59:39;10.00;99.90
14771;DHT22;7477;45.222;5.688;2024-01-27T16:02:59;10.00;99.90
14771;DHT22;7477;45.222;5.688;2024-01-27T16:06:18;10.10;99.90
14771;DHT22;7477;45.222;5.688;2024-01-27T16:09:45;10.10;99.90
14771;DHT22;7477;45.222;5.688;2024-01-27T16:13:05;10.10;99.90
14771;DHT22;7477;45.222;5.688;2024-01-27T16:16:24;10.10;99.90
14771;DHT22;7477;45.222;5.688;2024-01-27T16:19:45;10.00;99.90
14771;DHT22;7477;45.222;5.688;2024-01-27T16:23:04;10.10;99.90
14771;DHT22;7477;45.222;5.688;2024-01-27T16:26:24;10.00;99.90
14771;DHT22;7477;45.222;5.688;2024-01-27T16:29:46;10.00;99.90
14771;DHT22;7477;45.222;5.688;2024-01-27T16:33:06;10.00;99.90
14771;DHT22;7477;45.222;5.688;2024-01-27T16:36:26;10.00;99.90
14771;DHT22;7477;45.222;5.688;2024-01-27T16:39:45;9.90;99.90
14771;DHT22;7477;45.222;5.688;2024-01-27T16:43:04;9.90;99.90
14771;DHT22;7477;45.222;5.688;2024-01-27T16:46:24;9.90;99.90
14771;DHT22;7477;45.222;5.688;2024-01-27T16:49:43;9.80;99.90
14771;DHT22;7477;45.222;5.688;2024-01-27T16:53:05;9.80;99.90
14771;DHT22;7477;45.222;5.688;2024-01-27T16:56:25;9.70;99.90
14771;DHT22;7477;45.222;5.688;2024-01-27T16:59:45;9.70;99.90
14771;DHT22;7477;45.222;5.688;2024-01-27T17:03:04;9.60;99.90
14771;DHT22;7477;45.222;5.688;2024-01-27T17:06:23;9.60;99.90
14771;DHT22;7477;45.222;5.688;2024-01-27T17:09:42;9.60;99.90
14771;DHT22;7477;45.222;5.688;2024-01-27T17:13:01;9.50;99.90
14771;DHT22;7477;45.222;5.688;2024-01-27T17:16:20;9.50;99.90
14771;DHT22;7477;45.222;5.688;2024-01-27T17:19:39;9.50;99.90
14771;DHT22;7477;45.222;5.688;2024-01-27T17:22:59;9.40;99.90
14771;DHT22;7477;45.222;5.688;2024-01-27T17:26:18;9.30;99.90
14771;DHT22;7477;45.222;5.688;2024-01-27T17:29:38;9.20;99.90
14771;DHT22;7477;45.222;5.688;2024-01-27T17:32:57;9.20;99.90
14771;DHT22;7477;45.222;5.688;2024-01-27T17:36:16;9.20;99.90
14771;DHT22;7477;45.222;5.688;2024-01-27T17:39:35;9.20;99.90
14771;DHT22;7477;45.222;5.688;2024-01-27T17:42:54;9.10;99.90
14771;DHT22;7477;45.222;5.688;2024-01-27T17:46:14;9.10;99.90
14771;DHT22;7477;45.222;5.688;2024-01-27T17:49:33;9.00;99.90
14771;DHT22;7477;45.222;5.688;2024-01-27T17:52:52;9.00;99.90
14771;DHT22;7477;45.222;5.688;2024-01-27T17:56:28;8.90;99.90
14771;DHT22;7477;45.222;5.688;2024-01-27T17:59:47;8.70;99.90
14771;DHT22;7477;45.222;5.688;2024-01-27T18:03:06;8.70;99.90
14771;DHT22;7477;45.222;5.688;2024-01-27T18:06:25;8.60;99.90
14771;DHT22;7477;45.222;5.688;2024-01-27T18:09:45;8.60;99.90
14771;DHT22;7477;45.222;5.688;2024-01-27T18:13:04;8.50;99.90
14771;DHT22;7477;45.222;5.688;2024-01-27T18:16:23;8.50;99.90
14771;DHT22;7477;45.222;5.688;2024-01-27T18:19:44;8.70;99.90
14771;DHT22;7477;45.222;5.688;2024-01-27T18:23:03;8.60;99.90
14771;DHT22;7477;45.222;5.688;2024-01-27T18:26:23;8.60;99.90
14771;DHT22;7477;45.222;5.688;2024-01-27T18:29:42;8.40;99.90
14771;DHT22;7477;45.222;5.688;2024-01-27T18:33:01;8.40;99.90
14771;DHT22;7477;45.222;5.688;2024-01-27T18:36:21;8.40;99.90
14771;DHT22;7477;45.222;5.688;2024-01-27T18:39:41;8.30;99.90
14771;DHT22;7477;45.222;5.688;2024-01-27T18:43:00;8.20;99.90
14771;DHT22;7477;45.222;5.688;2024-01-27T18:46:19;8.30;99.90
14771;DHT22;7477;45.222;5.688;2024-01-27T18:49:39;8.30;99.90
14771;DHT22;7477;45.222;5.688;2024-01-27T18:52:58;8.20;99.90
14771;DHT22;7477;45.222;5.688;2024-01-27T18:56:17;8.20;99.90
14771;DHT22;7477;45.222;5.688;2024-01-27T18:59:36;8.50;99.90
14771;DHT22;7477;45.222;5.688;2024-01-27T19:02:56;8.50;99.90
14771;DHT22;7477;45.222;5.688;2024-01-27T19:06:15;8.60;99.90
14771;DHT22;7477;45.222;5.688;2024-01-27T19:09:37;8.60;99.90
14771;DHT22;7477;45.222;5.688;2024-01-27T19:12:56;8.50;99.90
14771;DHT22;7477;45.222;5.688;2024-01-27T19:16:16;8.50;99.90
14771;DHT22;7477;45.222;5.688;2024-01-27T19:19:35;8.60;99.90
14771;DHT22;7477;45.222;5.688;2024-01-27T19:22:54;8.60;99.90
14771;DHT22;7477;45.222;5.688;2024-01-27T19:26:14;8.60;99.90
14771;DHT22;7477;45.222;5.688;2024-01-27T19:29:33;8.50;99.90
14771;DHT22;7477;45.222;5.688;2024-01-27T19:32:52;8.40;99.90
14771;DHT22;7477;45.222;5.688;2024-01-27T19:36:12;8.50;99.90
14771;DHT22;7477;45.222;5.688;2024-01-27T19:39:32;8.60;99.90
14771;DHT22;7477;45.222;5.688;2024-01-27T19:42:51;8.60;99.90
14771;DHT22;7477;45.222;5.688;2024-01-27T19:46:11;8.50;99.90
14771;DHT22;7477;45.222;5.688;2024-01-27T19:49:31;8.30;99.90
14771;DHT22;7477;45.222;5.688;2024-01-27T19:52:52;8.50;99.90
14771;DHT22;7477;45.222;5.688;2024-01-27T19:56:13;8.60;99.90
14771;DHT22;7477;45.222;5.688;2024-01-27T19:59:33;8.20;99.90
14771;DHT22;7477;45.222;5.688;2024-01-27T20:02:52;8.10;99.90
14771;DHT22;7477;45.222;5.688;2024-01-27T20:06:11;8.20;99.90
14771;DHT22;7477;45.222;5.688;2024-01-27T20:09:31;8.10;99.90
14771;DHT22;7477;45.222;5.688;2024-01-27T20:12:50;8.30;99.90
14771;DHT22;7477;45.222;5.688;2024-01-27T20:16:15;8.50;99.90
14771;DHT22;7477;45.222;5.688;2024-01-27T20:19:34;8.70;99.90
14771;DHT22;7477;45.222;5.688;2024-01-27T20:22:54;8.70;99.90
14771;DHT22;7477;45.222;5.688;2024-01-27T20:26:13;8.40;99.90
14771;DHT22;7477;45.222;5.688;2024-01-27T20:29:32;8.40;99.90
14771;DHT22;7477;45.222;5.688;2024-01-27T20:32:52;8.60;99.90
14771;DHT22;7477;45.222;5.688;2024-01-27T20:36:16;8.60;99.90
14771;DHT22;7477;45.222;5.688;2024-01-27T20:39:36;8.60;99.90
14771;DHT22;7477;45.222;5.688;2024-01-27T20:42:56;8.20;99.90
14771;DHT22;7477;45.222;5.688;2024-01-27T20:46:17;8.00;99.90
14771;DHT22;7477;45.222;5.688;2024-01-27T20:49:36;8.10;99.90
14771;DHT22;7477;45.222;5.688;2024-01-27T20:52:56;8.00;99.90
14771;DHT22;7477;45.222;5.688;2024-01-27T20:56:15;7.70;99.90
14771;DHT22;7477;45.222;5.688;2024-01-27T20:59:34;7.60;99.90
14771;DHT22;7477;45.222;5.688;2024-01-27T21:02:55;7.90;99.90
14771;DHT22;7477;45.222;5.688;2024-01-27T21:06:14;7.80;99.90
14771;DHT22;7477;45.222;5.688;2024-01-27T21:09:33;7.60;99.90
14771;DHT22;7477;45.222;5.688;2024-01-27T21:12:53;7.60;99.90
14771;DHT22;7477;45.222;5.688;2024-01-27T21:16:13;7.60;99.90
14771;DHT22;7477;45.222;5.688;2024-01-27T21:19:32;7.40;99.90
14771;DHT22;7477;45.222;5.688;2024-01-27T21:22:55;7.40;99.90
14771;DHT22;7477;45.222;5.688;2024-01-27T21:26:15;7.50;99.90
14771;DHT22;7477;45.222;5.688;2024-01-27T21:29:36;7.60;99.90
14771;DHT22;7477;45.222;5.688;2024-01-27T21:32:56;7.90;99.90
14771;DHT22;7477;45.222;5.688;2024-01-27T21:36:15;7.80;99.90
14771;DHT22;7477;45.222;5.688;2024-01-27T21:39:34;7.50;99.90